Time;durP1;ratioP1;P1;durP2;ratioP2;P2;SDS_P1;SDS_P2;PMS_P1;PMS_P2;Temp;Humidity;BMP_temperature;BMP_pressure;BME280_temperature;BME280_humidity;BME280_pressure;Samples;Min_cycle;Max_cycle;Signal;HPM_P1;HPM_P2
2020/12/13 00:04:40;;;;;;;49.85;23.77;;;5.80;99.90;;;;;;12433337;28;20057;-35
2020/12/13 00:10:41;;;;;;;53.45;24.90;;;5.90;99.90;;;;;;12422509;28;20161;-35
2020/12/13 00:16:42;;;;;;;67.55;28.33;;;6.00;99.90;;;;;;12432471;28;20520;-35
2020/12/13 00:22:45;;;;;;;66.13;29.10;;;6.00;99.90;;;;;;12436802;28;20657;-35
2020/12/13 00:28:46;;;;;;;69.03;30.88;;;6.00;99.90;;;;;;12413005;28;20049;-35
2020/12/13 00:34:48;;;;;;;77.32;31.00;;;6.00;99.90;;;;;;12435659;28;20053;-35
2020/12/13 00:40:51;;;;;;;69.70;30.25;;;6.00;99.90;;;;;;12439586;28;20045;-35
2020/12/13 00:46:53;;;;;;;74.22;31.63;;;6.00;99.90;;;;;;12442821;28;20072;-35
2020/12/13 00:52:55;;;;;;;72.00;30.10;;;6.00;99.90;;;;;;12462441;28;20476;-35
2020/12/13 00:58:56;;;;;;;78.18;31.15;;;6.00;99.90;;;;;;12427424;28;20060;-35
2020/12/13 01:04:57;;;;;;;82.38;30.92;;;6.10;99.90;;;;;;12427333;28;20452;-35
2020/12/13 01:10:59;;;;;;;77.03;30.70;;;6.10;99.90;;;;;;12413888;28;20393;-35
2020/12/13 01:17:02;;;;;;;79.60;30.48;;;6.10;99.90;;;;;;12450386;28;20137;-35
2020/12/13 01:23:03;;;;;;;71.30;29.33;;;6.10;99.90;;;;;;12457559;28;20160;-35
2020/12/13 01:29:05;;;;;;;75.75;28.77;;;6.10;99.90;;;;;;12441893;28;20074;-35
2020/12/13 01:35:07;;;;;;;81.22;30.83;;;6.10;99.90;;;;;;12451307;28;20041;-35
2020/12/13 01:41:09;;;;;;;78.85;30.00;;;6.10;99.90;;;;;;12447866;28;20053;-35
2020/12/13 01:47:11;;;;;;;78.05;30.38;;;6.10;99.90;;;;;;12451053;28;20088;-35
2020/12/13 01:53:15;;;;;;;85.28;30.33;;;6.10;99.90;;;;;;12440224;28;20050;-35
2020/12/13 01:59:18;;;;;;;74.45;29.77;;;6.20;99.90;;;;;;12426013;28;20080;-35
2020/12/13 02:05:20;;;;;;;90.40;32.28;;;6.20;99.90;;;;;;12427770;28;20081;-35
2020/12/13 02:11:22;;;;;;;86.25;30.13;;;6.20;99.90;;;;;;12432725;28;20055;-35
2020/12/13 02:17:24;;;;;;;83.50;30.33;;;6.20;99.90;;;;;;12443255;28;20060;-35
2020/12/13 02:23:26;;;;;;;78.05;29.38;;;6.20;99.90;;;;;;12438410;28;20072;-35
2020/12/13 02:29:27;;;;;;;79.45;30.65;;;6.20;99.90;;;;;;12454380;28;20057;-35
2020/12/13 02:35:29;;;;;;;77.25;28.48;;;6.20;99.90;;;;;;12415739;28;20494;-35
2020/12/13 02:41:30;;;;;;;74.15;26.88;;;6.20;99.90;;;;;;12445446;28;20061;-35
2020/12/13 02:47:31;;;;;;;73.03;28.42;;;6.30;99.90;;;;;;12447686;28;20522;-35
2020/12/13 02:53:33;;;;;;;77.53;28.67;;;6.20;99.90;;;;;;12424023;28;20123;-35
2020/12/13 02:59:35;;;;;;;69.95;27.67;;;6.20;99.90;;;;;;12424007;28;20089;-35
2020/12/13 03:05:36;;;;;;;80.10;28.77;;;6.20;99.90;;;;;;12440089;28;20045;-35
2020/12/13 03:11:37;;;;;;;89.72;30.48;;;6.20;99.90;;;;;;12414559;28;20080;-35
2020/12/13 03:17:40;;;;;;;89.07;30.25;;;6.20;99.90;;;;;;12452583;28;20072;-35
2020/12/13 03:23:42;;;;;;;80.28;27.88;;;6.20;99.90;;;;;;12461194;28;20053;-35
2020/12/13 03:29:45;;;;;;;67.57;24.88;;;6.20;99.90;;;;;;12430054;28;20460;-35
2020/12/13 03:35:47;;;;;;;71.25;26.55;;;6.20;99.90;;;;;;12433489;28;20060;-35
2020/12/13 03:41:48;;;;;;;71.78;26.73;;;6.30;99.90;;;;;;12437098;28;20084;-35
2020/12/13 03:47:49;;;;;;;77.95;28.25;;;6.30;99.90;;;;;;12452727;28;20088;-35
2020/12/13 03:53:51;;;;;;;85.25;28.30;;;6.40;99.90;;;;;;12452135;28;20060;-35
2020/12/13 03:59:52;;;;;;;100.22;32.38;;;6.40;99.90;;;;;;12442824;28;20462;-35
2020/12/13 04:05:53;;;;;;;99.45;31.75;;;6.40;99.90;;;;;;12428596;28;20073;-35
2020/12/13 04:11:55;;;;;;;127.10;34.85;;;6.40;99.90;;;;;;12418438;28;20060;-35
2020/12/13 04:17:56;;;;;;;117.50;32.17;;;6.40;99.90;;;;;;12452234;28;20049;-35
2020/12/13 04:23:57;;;;;;;121.22;34.20;;;6.40;99.90;;;;;;12454667;28;20073;-35
2020/12/13 04:30:00;;;;;;;123.38;35.08;;;6.40;99.90;;;;;;12444506;28;20056;-35
2020/12/13 04:36:05;;;;;;;126.95;36.83;;;6.40;99.90;;;;;;12432391;28;20394;-35
2020/12/13 04:42:06;;;;;;;127.03;37.40;;;6.50;99.90;;;;;;12418933;28;20157;-35
2020/12/13 04:48:09;;;;;;;136.25;36.53;;;6.50;99.90;;;;;;12447485;28;20045;-35
2020/12/13 04:54:23;;;;;;;142.48;38.60;;;6.50;99.90;;;;;;12432967;28;20058;-35
2020/12/13 05:00:29;;;;;;;159.45;40.97;;;6.50;99.90;;;;;;12451209;28;21235;-35
2020/12/13 05:06:31;;;;;;;161.65;40.92;;;6.50;99.90;;;;;;12415739;28;20131;-35
2020/12/13 05:12:32;;;;;;;164.45;43.45;;;6.50;99.90;;;;;;12428986;28;20065;-35
2020/12/13 05:18:40;;;;;;;186.63;43.80;;;6.50;99.90;;;;;;12430835;28;20084;-35
2020/12/13 05:24:42;;;;;;;182.38;42.47;;;6.50;99.90;;;;;;12441360;28;20061;-35
2020/12/13 05:30:46;;;;;;;182.98;44.22;;;6.60;99.90;;;;;;12426520;28;20045;-35
2020/12/13 05:36:47;;;;;;;168.30;43.33;;;6.60;99.90;;;;;;12422985;28;20057;-35
2020/12/13 05:43:04;;;;;;;174.60;43.30;;;6.60;99.90;;;;;;12419822;28;20064;-35
2020/12/13 05:55:11;;;;;;;151.00;39.88;;;6.70;99.90;;;;;;12439577;28;20084;-35
2020/12/13 06:01:19;;;;;;;157.07;39.40;;;6.70;99.90;;;;;;12427297;28;20037;-35
2020/12/13 06:07:27;;;;;;;156.02;40.83;;;6.60;99.90;;;;;;12421706;28;20099;-35
2020/12/13 06:13:37;;;;;;;133.65;37.90;;;6.70;99.90;;;;;;12405370;28;20153;-35
2020/12/13 06:19:40;;;;;;;161.30;41.17;;;6.80;99.90;;;;;;12440777;28;20037;-35
2020/12/13 06:25:44;;;;;;;142.65;36.67;;;6.80;99.90;;;;;;12439380;28;20072;-35
2020/12/13 06:31:45;;;;;;;142.20;37.00;;;6.80;99.90;;;;;;12421519;28;20168;-35
2020/12/13 06:37:47;;;;;;;117.70;34.05;;;6.80;99.90;;;;;;12428674;28;20057;-35
2020/12/13 06:43:54;;;;;;;124.82;34.28;;;6.90;99.90;;;;;;12424369;28;20061;-35
2020/12/13 06:49:56;;;;;;;115.70;33.78;;;6.90;99.90;;;;;;12412144;28;20092;-35
2020/12/13 06:56:11;;;;;;;113.50;33.60;;;7.00;99.90;;;;;;12444524;28;20080;-35
2020/12/13 07:02:45;;;;;;;118.53;34.58;;;6.90;99.90;;;;;;12433258;28;20053;-35
2020/12/13 07:09:00;;;;;;;126.30;34.00;;;7.00;99.90;;;;;;12419109;28;20130;-35
2020/12/13 07:15:12;;;;;;;112.60;34.45;;;7.00;99.90;;;;;;12424502;28;20487;-35
2020/12/13 07:21:15;;;;;;;115.15;33.50;;;7.00;99.90;;;;;;12429863;28;20069;-35
2020/12/13 07:27:18;;;;;;;125.40;32.72;;;7.10;99.90;;;;;;12449815;28;20049;-35
2020/12/13 07:33:19;;;;;;;104.03;33.38;;;7.10;99.90;;;;;;12424314;28;20053;-35
2020/12/13 07:39:22;;;;;;;88.32;30.20;;;7.10;99.90;;;;;;12436837;28;20046;-35
2020/12/13 07:45:24;;;;;;;91.80;32.25;;;7.20;99.90;;;;;;12440662;28;20053;-35
2020/12/13 07:51:27;;;;;;;88.70;31.52;;;7.40;99.90;;;;;;12452883;28;20110;-35
2020/12/13 07:57:28;;;;;;;74.88;27.45;;;7.50;99.90;;;;;;12440656;28;20137;-35
2020/12/13 08:03:44;;;;;;;67.55;25.58;;;7.70;99.90;;;;;;12428553;28;20084;-35
2020/12/13 08:09:53;;;;;;;64.93;27.13;;;7.70;99.90;;;;;;12452312;28;20409;-35
2020/12/13 08:16:02;;;;;;;61.30;25.08;;;7.70;99.90;;;;;;12446931;28;20145;-35
2020/12/13 08:22:08;;;;;;;59.47;23.80;;;7.60;99.90;;;;;;12433000;28;20452;-35
2020/12/13 08:28:14;;;;;;;62.30;23.65;;;7.70;99.90;;;;;;12441766;28;20061;-35
2020/12/13 08:34:26;;;;;;;51.47;21.45;;;7.60;99.90;;;;;;12416388;28;20088;-35
2020/12/13 08:40:36;;;;;;;55.85;22.55;;;7.60;99.90;;;;;;12399810;28;20052;-35
2020/12/13 08:46:44;;;;;;;55.42;21.60;;;7.60;99.90;;;;;;11739512;23;20282;-86
2020/12/13 08:52:48;;;;;;;52.13;21.42;;;7.50;99.90;;;;;;12407584;28;20076;-87
2020/12/13 08:58:57;;;;;;;53.70;21.90;;;7.60;99.90;;;;;;12401549;28;20077;-88
2020/12/13 09:05:01;;;;;;;47.67;20.63;;;7.50;99.90;;;;;;12438316;28;20042;-86
2020/12/13 09:11:05;;;;;;;46.88;20.00;;;7.30;99.90;;;;;;12409987;28;20050;-86
2020/12/13 09:17:07;;;;;;;45.22;19.80;;;7.30;99.90;;;;;;12405675;28;20050;-86
2020/12/13 09:23:20;;;;;;;51.28;21.08;;;7.30;99.90;;;;;;12418346;28;20084;-86
2020/12/13 09:29:22;;;;;;;46.63;20.83;;;7.20;99.90;;;;;;12414917;28;20133;-87
2020/12/13 09:35:23;;;;;;;47.10;20.73;;;7.20;99.90;;;;;;12409529;28;20050;-88
2020/12/13 09:41:25;;;;;;;44.95;20.73;;;7.10;99.90;;;;;;12428603;28;20069;-87
2020/12/13 09:53:47;;;;;;;52.10;22.77;;;7.20;99.90;;;;;;4973385;26;20054;-85
2020/12/13 09:59:48;;;;;;;48.58;23.25;;;7.20;99.90;;;;;;12381898;28;20057;-85
2020/12/13 10:06:07;;;;;;;51.97;22.38;;;7.40;99.90;;;;;;12389360;28;20065;-85
2020/12/13 10:12:08;;;;;;;58.50;24.20;;;7.30;99.90;;;;;;12400340;28;20408;-85
2020/12/13 10:18:10;;;;;;;60.10;25.80;;;7.30;99.90;;;;;;12395519;28;20054;-85
2020/12/13 10:24:12;;;;;;;54.92;23.30;;;7.40;99.90;;;;;;12375331;28;20082;-85
2020/12/13 10:30:13;;;;;;;55.40;24.42;;;7.50;99.90;;;;;;12402446;28;20085;-85
2020/12/13 10:36:14;;;;;;;52.08;24.00;;;7.50;99.90;;;;;;12395090;28;20474;-85
2020/12/13 10:42:16;;;;;;;49.58;22.60;;;7.50;99.90;;;;;;12383130;28;20061;-85
2020/12/13 10:48:18;;;;;;;49.45;23.35;;;7.50;99.90;;;;;;12396055;28;20050;-85
2020/12/13 10:54:19;;;;;;;49.90;23.58;;;7.50;99.90;;;;;;12373345;28;20061;-85
2020/12/13 11:00:23;;;;;;;59.47;25.38;;;7.50;99.90;;;;;;12394828;28;20557;-85
2020/12/13 11:06:24;;;;;;;63.93;25.53;;;7.60;99.90;;;;;;12391268;28;20086;-85
2020/12/13 11:12:26;;;;;;;56.75;25.48;;;7.60;99.90;;;;;;12391809;28;20057;-85
2020/12/13 11:18:30;;;;;;;63.58;26.35;;;7.60;99.90;;;;;;12379513;28;20108;-85
2020/12/13 11:24:31;;;;;;;60.73;25.73;;;7.70;99.90;;;;;;12379581;28;20046;-85
2020/12/13 11:30:36;;;;;;;66.82;27.25;;;7.70;99.90;;;;;;12392641;28;20177;-85
2020/12/13 11:36:37;;;;;;;75.25;27.60;;;7.60;99.90;;;;;;12405977;28;20092;-85
2020/12/13 11:42:39;;;;;;;70.22;28.38;;;7.60;99.90;;;;;;12395971;28;20049;-85
2020/12/13 11:48:40;;;;;;;81.07;29.77;;;7.70;99.90;;;;;;12414711;28;20053;-85
2020/12/13 11:54:42;;;;;;;74.20;28.20;;;7.80;99.90;;;;;;12409226;28;20054;-85
2020/12/13 12:00:44;;;;;;;65.57;26.73;;;7.90;99.90;;;;;;12389157;28;20050;-85
2020/12/13 12:06:46;;;;;;;67.80;26.60;;;8.00;99.90;;;;;;12383855;28;20188;-85
2020/12/13 12:12:48;;;;;;;64.38;26.75;;;8.00;99.90;;;;;;12386441;28;20058;-86
2020/12/13 12:18:50;;;;;;;64.47;26.63;;;8.00;99.90;;;;;;12447205;28;20150;-85
2020/12/13 12:24:51;;;;;;;63.75;26.25;;;8.10;99.90;;;;;;12418872;28;20058;-85
2020/12/13 12:30:52;;;;;;;69.05;26.27;;;8.00;99.90;;;;;;12402359;28;20057;-85
2020/12/13 12:36:54;;;;;;;65.45;25.48;;;8.00;99.90;;;;;;12387512;28;20506;-84
2020/12/13 12:42:55;;;;;;;62.80;26.70;;;7.90;99.90;;;;;;12402926;28;20469;-85
2020/12/13 12:48:57;;;;;;;65.03;27.73;;;7.90;99.90;;;;;;12383822;28;20549;-85
2020/12/13 12:54:58;;;;;;;62.70;26.13;;;8.00;99.90;;;;;;12401724;28;20077;-85
2020/12/13 13:01:04;;;;;;;62.35;26.92;;;8.00;99.90;;;;;;12384282;28;20057;-85
2020/12/13 13:07:11;;;;;;;63.55;26.65;;;8.00;99.90;;;;;;12384643;28;20074;-83
2020/12/13 13:13:13;;;;;;;62.05;26.58;;;8.00;99.90;;;;;;12374295;28;20060;-83
2020/12/13 13:19:18;;;;;;;68.68;27.05;;;7.90;99.90;;;;;;12402780;28;20062;-83
2020/12/13 13:25:19;;;;;;;58.92;25.52;;;7.90;99.90;;;;;;12400076;28;20049;-84
2020/12/13 13:31:23;;;;;;;64.18;27.02;;;8.00;99.90;;;;;;12402739;28;20060;-83
2020/12/13 13:37:24;;;;;;;60.87;27.27;;;7.90;99.90;;;;;;12401111;28;20054;-84
2020/12/13 13:43:26;;;;;;;63.95;28.27;;;7.90;99.90;;;;;;12398215;28;20294;-83
2020/12/13 13:55:55;;;;;;;52.33;27.52;;;8.00;99.90;;;;;;12396818;28;20081;-84
2020/12/13 14:01:57;;;;;;;49.85;27.27;;;8.20;99.90;;;;;;12386764;28;20355;-83
2020/12/13 14:08:08;;;;;;;57.25;29.17;;;8.10;99.90;;;;;;12380044;28;20061;-83
2020/12/13 14:14:09;;;;;;;56.50;30.13;;;7.90;99.90;;;;;;12377250;28;20081;-84
2020/12/13 14:20:11;;;;;;;65.28;32.35;;;7.80;99.90;;;;;;12376582;28;20049;-84
2020/12/13 14:26:12;;;;;;;54.65;30.88;;;7.70;99.90;;;;;;12373776;28;20101;-84
2020/12/13 14:32:18;;;;;;;61.33;32.67;;;7.70;99.90;;;;;;12394031;28;20057;-84
2020/12/13 14:38:20;;;;;;;60.55;31.35;;;7.70;99.90;;;;;;12377047;28;20046;-83
2020/12/13 14:44:22;;;;;;;59.13;32.53;;;7.70;99.90;;;;;;12396636;28;20050;-84
2020/12/13 14:50:23;;;;;;;57.85;33.35;;;7.50;99.90;;;;;;12377089;28;20058;-84
2020/12/13 14:56:24;;;;;;;62.13;33.03;;;7.10;99.90;;;;;;12394284;28;20057;-83
2020/12/13 15:02:27;;;;;;;84.95;35.00;;;6.90;99.90;;;;;;12404007;28;20046;-84
2020/12/13 15:08:28;;;;;;;69.35;34.45;;;7.00;99.90;;;;;;12403840;28;20563;-84
2020/12/13 15:14:39;;;;;;;66.70;33.05;;;7.10;99.90;;;;;;12406124;28;20053;-84
2020/12/13 15:20:40;;;;;;;67.78;35.00;;;7.00;99.90;;;;;;12404797;28;20065;-84
2020/12/13 15:26:41;;;;;;;63.70;33.63;;;6.90;99.90;;;;;;12397960;28;20512;-84
2020/12/13 15:32:43;;;;;;;70.20;34.17;;;6.90;99.90;;;;;;12407533;28;20107;-84
2020/12/13 15:38:44;;;;;;;62.85;33.15;;;6.90;99.90;;;;;;12423635;28;20057;-84
2020/12/13 15:44:46;;;;;;;59.70;31.15;;;6.80;99.90;;;;;;12379818;28;20042;-83
2020/12/13 15:50:47;;;;;;;51.05;29.15;;;6.80;99.90;;;;;;12380024;28;20058;-82
2020/12/13 15:56:48;;;;;;;50.13;27.92;;;6.80;99.90;;;;;;12391497;28;20053;-83
2020/12/13 16:02:49;;;;;;;46.83;27.27;;;6.70;99.90;;;;;;12376720;28;20104;-83
2020/12/13 16:08:55;;;;;;;45.92;26.95;;;6.50;99.90;;;;;;12402502;28;20117;-83
2020/12/13 16:14:58;;;;;;;;;;;6.30;99.90;;;;;;12404714;28;20409;-83
2020/12/13 16:21:00;;;;;;;50.53;26.70;;;6.20;99.90;;;;;;12403541;28;19926;-83
2020/12/13 16:27:02;;;;;;;49.20;27.90;;;5.90;99.90;;;;;;12385964;28;20073;-83
2020/12/13 16:33:04;;;;;;;56.10;29.23;;;5.90;99.90;;;;;;12389701;28;20055;-83
2020/12/13 16:39:08;;;;;;;61.78;29.95;;;5.80;99.90;;;;;;12387279;28;20521;-82
2020/12/13 16:45:09;;;;;;;58.33;29.70;;;5.80;99.90;;;;;;12381897;28;20101;-83
2020/12/13 16:57:32;;;;;;;54.67;27.08;;;5.80;99.90;;;;;;12406523;28;20050;-83
2020/12/13 17:03:33;;;;;;;53.15;27.00;;;5.70;99.90;;;;;;12391049;28;20050;-83
2020/12/13 17:09:34;;;;;;;58.38;28.23;;;5.60;99.90;;;;;;12392921;28;20054;-83
2020/12/13 17:15:36;;;;;;;66.35;29.08;;;5.60;99.90;;;;;;12409663;28;20061;-82
2020/12/13 17:21:37;;;;;;;59.22;26.85;;;5.60;99.90;;;;;;12409384;28;20153;-82
2020/12/13 17:27:39;;;;;;;59.20;25.77;;;5.60;99.90;;;;;;12390525;28;20453;-82
2020/12/13 17:33:40;;;;;;;47.35;25.27;;;5.50;99.90;;;;;;12390293;28;20057;-83
2020/12/13 17:39:43;;;;;;;53.92;24.92;;;5.40;99.90;;;;;;12398451;28;20054;-83
2020/12/13 17:45:44;;;;;;;37.50;21.33;;;5.50;99.90;;;;;;12410818;28;20108;-83
2020/12/13 17:51:54;;;;;;;33.33;19.33;;;5.30;99.90;;;;;;12389827;28;20061;-83
2020/12/13 17:58:00;;;;;;;30.80;16.73;;;5.30;99.90;;;;;;12385110;28;20108;-83
2020/12/13 18:04:02;;;;;;;29.73;15.18;;;5.10;99.90;;;;;;12377767;28;20046;-83
2020/12/13 18:10:05;;;;;;;23.15;13.35;;;5.20;99.90;;;;;;12363467;28;20532;-82
2020/12/13 18:16:07;;;;;;;26.10;13.55;;;5.10;99.90;;;;;;12379154;28;20564;-83
2020/12/13 18:22:15;;;;;;;24.38;14.32;;;5.10;99.90;;;;;;12376592;28;20772;-83
2020/12/13 18:28:17;;;;;;;28.85;15.88;;;5.00;99.90;;;;;;12394001;28;20054;-83
2020/12/13 18:34:18;;;;;;;37.03;17.10;;;5.00;99.90;;;;;;12386395;28;20046;-83
2020/12/13 18:40:19;;;;;;;29.33;16.77;;;5.00;99.90;;;;;;12411312;28;20054;-83
2020/12/13 18:46:21;;;;;;;25.33;14.82;;;5.10;99.90;;;;;;12391923;28;20679;-83
2020/12/13 18:52:23;;;;;;;29.25;17.02;;;5.10;99.90;;;;;;12404488;28;20560;-82
2020/12/13 18:58:24;;;;;;;28.55;16.70;;;5.10;99.90;;;;;;12425514;28;20046;-82
2020/12/13 19:04:59;;;;;;;27.92;15.82;;;5.00;99.90;;;;;;12440567;28;20053;-82
2020/12/13 19:10:53;;;;;;;23.02;13.60;;;4.90;99.90;;;;;;12399197;28;20061;-82
2020/12/13 19:16:54;;;;;;;22.88;13.10;;;4.80;99.90;;;;;;12400287;28;20428;-83
2020/12/13 19:22:57;;;;;;;21.40;12.55;;;4.70;99.90;;;;;;12410623;28;20186;-82
2020/12/13 19:28:59;;;;;;;19.73;11.95;;;4.80;99.90;;;;;;12395260;28;20088;-83
2020/12/13 19:35:06;;;;;;;20.20;12.15;;;4.90;99.90;;;;;;12423469;28;20101;-84
2020/12/13 19:41:09;;;;;;;18.45;11.25;;;5.00;99.90;;;;;;12396298;28;20052;-82
2020/12/13 19:47:11;;;;;;;18.52;11.15;;;5.00;99.90;;;;;;12393922;28;20054;-82
2020/12/13 19:53:14;;;;;;;21.45;10.82;;;5.20;99.90;;;;;;12403720;28;20042;-82
2020/12/13 19:59:18;;;;;;;17.92;10.20;;;5.20;99.90;;;;;;12403241;28;20046;-84
2020/12/13 20:05:20;;;;;;;16.70;10.13;;;5.30;99.90;;;;;;12388736;28;20637;-84
2020/12/13 20:11:24;;;;;;;13.40;8.55;;;5.20;99.90;;;;;;12390822;28;20054;-84
2020/12/13 20:56:16;;;;;;;8.13;5.35;;;5.40;99.90;;;;;;12411678;28;20058;-84
2020/12/13 21:20:43;;;;;;;8.50;5.47;;;5.70;99.90;;;;;;12413863;28;20057;-84
2020/12/13 21:45:13;;;;;;;7.28;4.97;;;5.70;99.90;;;;;;12402956;28;20062;-83
2020/12/13 21:51:23;;;;;;;8.48;5.35;;;5.60;99.90;;;;;;12401828;28;20107;-84
2020/12/13 21:57:27;;;;;;;9.23;5.55;;;5.50;99.90;;;;;;12403126;28;20059;-84
2020/12/13 22:28:49;;;;;;;9.35;4.95;;;5.50;99.90;;;;;;12431402;28;20069;-82
2020/12/13 22:34:51;;;;;;;9.15;4.85;;;5.60;99.90;;;;;;12398968;28;20057;-82
2020/12/13 22:40:52;;;;;;;8.82;5.38;;;5.70;99.90;;;;;;12374533;28;20054;-82
2020/12/13 22:46:57;;;;;;;11.23;5.80;;;5.70;99.90;;;;;;12397574;28;20062;-82
2020/12/13 22:52:59;;;;;;;;;;;5.70;99.90;;;;;;12399557;28;20060;-82
2020/12/13 22:59:02;;;;;;;11.35;5.47;;;5.70;99.90;;;;;;12398378;28;20075;-82
2020/12/13 23:05:03;;;;;;;9.52;6.10;;;5.80;99.90;;;;;;12402060;28;20386;-83
2020/12/13 23:11:05;;;;;;;9.23;5.95;;;5.90;99.90;;;;;;12391978;28;20057;-82
2020/12/13 23:17:06;;;;;;;9.23;5.65;;;5.90;99.90;;;;;;12385489;28;20413;-82
2020/12/13 23:23:09;;;;;;;7.72;5.43;;;5.90;99.90;;;;;;12385480;28;20995;-82
2020/12/13 23:29:10;;;;;;;10.48;7.25;;;5.80;99.90;;;;;;12393298;28;20077;-82
2020/12/13 23:35:11;;;;;;;12.48;6.68;;;5.80;99.90;;;;;;12386798;28;20152;-82
2020/12/13 23:41:13;;;;;;;12.90;7.43;;;5.80;99.90;;;;;;12387077;28;20052;-82
2020/12/13 23:47:18;;;;;;;10.20;6.43;;;5.80;99.90;;;;;;12399675;28;20051;-82
2020/12/13 23:53:20;;;;;;;10.05;5.93;;;5.70;99.90;;;;;;12406361;28;20054;-82
2020/12/13 23:59:21;;;;;;;8.50;5.63;;;5.70;99.90;;;;;;12402439;28;20054;-82
